Timothy Courtois

Olheiro-Chefe - KV Oostende
23 Abr 2028
Domingo
Processo

Personalidade

Adaptabilidade (1) Ambição (1) Controvérsia (11) Lealdade (11) Pressão (10) Profissionalismo (6) Espírito Esportivo (10) Temperamento (4)

Perfil

Estilo de Treinamento Democrático
Licença Nacional B
Determinação 7
Gestão de Pessoas 11
Motivação 12
Disciplina 4
Satisfação no Trabalho
100%
Fadiga
0%
Função Olheiro-Chefe
Salário 85.3K p/s
Contrato 14.03.2029

Desempenho

Comportamento Bom
Eficácia do Treinamento
36%
Desenvolvimento do Jogador
40%
Prevenção de Lesões
40%
Implementação Tática
45%

Eventos Recentes

Participou de uma reunião de recrutamento agora
Recomendou um alvo de transferência agora
Recomendou um alvo de transferência agora
Recomendou um alvo de transferência agora
Recomendou um alvo de transferência agora
Participou de uma reunião de recrutamento agora
Avaliou um jogador agora
Avaliou um jogador agora

Monitorando agora

239
Jogador Clube Status Habilidade Confiança Observado Última observação Último voto
Cheveyo Tsawa Club Brugge Ativo 119 / 139 40% 4 22.04.2028 -
Salvador Blopá Sporting CP Ativo 120 / 126 40% 2 22.04.2028 -
Martim Cunha Porto Ativo 115 / 107 40% 5 21.04.2028 -
Christos Mouzakitis Hull City Ativo 129 / 138 40% 3 21.04.2028 -
Thijs Kraaijeveld USM Alger Ativo 124 / 123 40% 2 20.04.2028 -
Bernardo Lima Porto Ativo 103 / 120 40% 2 20.04.2028 -
Andrija Bulatović Chamois Niortais Ativo 128 / 135 40% 3 17.04.2028 -
Giovanni Leoni Lincoln City Ativo 147 / 146 40% 1 17.04.2028 -
Honest Ahanor Atalanta Ativo 145 / 148 40% 2 14.04.2028 -
Pape Diong Westerlo Ativo 106 / 121 40% 1 14.04.2028 -
Khalis Merah Olympique Lyonnais Ativo 126 / 132 40% 4 13.04.2028 -
Chris Rigg Sunderland Ativo 146 / 140 40% 4 13.04.2028 -
Josh King Newcastle United Ativo 142 / 150 40% 4 12.04.2028 -
Aboubacar Meïté Afrique Foot Elite Ativo 64 / 98 40% 3 12.04.2028 -
Riquelme Thompson-Jones Accrington Stanley Ativo 105 / 123 40% 2 10.04.2028 -
Mats Egbring Heerenveen Ativo 109 / 117 40% 1 10.04.2028 -
Abubakar Adams Aduana Stars Ativo 84 / 104 40% 1 09.04.2028 -
Josh Nichols Oldham Athletic Ativo 114 / 129 40% 3 07.04.2028 -
Kamaldeen Atiemo Wa All Stars Ativo 93 / 99 40% 1 07.04.2028 -
Lucas Høgsberg RC Strasbourg Ativo 133 / 142 40% 6 04.04.2028 -
Jorge Moreno Athletic Bilbao Ativo 124 / 134 40% 1 03.04.2028 -
Tobiáš Pališčák Zlin Ativo 117 / 95 40% 1 31.03.2028 -
Ayden Heaven Portsmouth Ativo 138 / 145 40% 4 29.03.2028 -
Daniel Banjaqui Benfica Ativo 116 / 133 40% 1 29.03.2028 -
Dmitry Pestryakov Krasnodar Ativo 120 / 110 40% 1 27.03.2028 -
Thulani Manyama SuperSport United Ativo 94 / 112 40% 2 25.03.2028 -
Kiani Inge Groningen Ativo 115 / 116 40% 2 23.03.2028 -
Jan Bürger Northampton Town Ativo 127 / 119 40% 1 22.03.2028 -
Ousmane Simpara Etoiles du Mande Ativo 89 / 93 40% 1 20.03.2028 -
Jason Witsel PSV Ativo 136 / 121 40% 1 19.03.2028 -
Amine Boukamir Charleroi Ativo 112 / 106 40% 1 18.03.2028 -
Josh Acheampong Everton Rejeitado 139 / 152 40% 1 17.03.2028 Mais informações
David Blanc Le Havre AC Ativo 107 / 111 40% 1 16.03.2028 -
Othniël Raterink Cagliari Ativo 110 / 129 40% 1 13.03.2028 -
Jorthy Mokio ADO Den Haag Ativo 125 / 130 40% 1 11.03.2028 -
Tylel Tati Chamois Niortais Ativo 131 / 138 40% 2 10.03.2028 -
Olivier Leroux Mouscron Ativo 90 / 106 40% 3 09.03.2028 -
David Fernande PWD Bamenda Ativo 62 / 70 40% 1 07.03.2028 -
Mao Hosoya Santos Negociando 134 / 135 67% 1 01.01.2028 Aprovar
John Mercado Sparta Prague Negociando 122 / 123 67% 1 01.01.2028 Aprovar
Matěj Ryneš AS Nancy Ativo 122 / 123 67% 1 01.01.2028 Aprovar
Mamadou Diakhon Club Brugge Ativo 134 / 132 48% 1 01.01.2028 -
Juan Esteban Ávalo Aguilas Doradas Ativo 105 / 117 40% 2 31.12.2027 -
Cristian Barrios Junior Ativo 116 / 119 40% 3 31.12.2027 -
Antonio Galeano Remo Stars Ativo 136 / 123 40% 4 20.12.2027 -
Rodrigo González Mitre Ativo 128 / 112 40% 2 20.12.2027 -
Santiago Montiel Independiente Ativo 125 / 124 40% 2 17.12.2027 -
Sebastián Navarro Atletico Nacional Ativo 132 / 128 40% 1 17.12.2027 -
Brian Farioli Estudiantes Ativo 117 / 117 40% 1 15.12.2027 -
Samuel Velásquez Atletico Nacional Ativo 116 / 120 40% 1 15.12.2027 -
Camilo Martinez Cortulua Ativo 131 / 119 40% 3 13.12.2027 -
Désiré Doué Stade Brestois Ativo 168 / 170 40% 2 13.12.2027 -
Alex Luna Instituto Ativo 129 / 138 40% 4 11.12.2027 -
Pedro de la Vega Columbus Crew Ativo 158 / 125 40% 4 11.12.2027 -
Liel Abada Inter Miami CF Ativo 148 / 132 40% 2 10.12.2027 -
David Da Costa Portland Timbers Ativo 113 / 140 40% 2 09.12.2027 -
Sayfallah Ltaief O'Higgins Ativo 128 / 129 40% 3 08.12.2027 -
Jáder Valencia Deportes Tolima Ativo 115 / 117 40% 1 08.12.2027 -
Nhoa Sangui AS Nancy Ativo 136 / 132 40% 3 07.12.2027 -
Hosea Michael Remo Stars Ativo 74 / 82 40% 2 07.12.2027 -
Carlos Cantillo Jaguares Ativo 104 / 118 40% 1 07.12.2027 -
Xavier Biscayzacú Defensor Sporting Ativo 124 / 130 40% 1 07.12.2027 -
Bénie Traoré New York City Ativo 133 / 127 40% 1 04.12.2027 -
Cheikh Sabaly Vancouver Whitecaps Ativo 134 / 123 40% 1 02.12.2027 -
André Luiz Sporting Kansas City Ativo 113 / 136 40% 1 01.12.2027 -
Telasco Segovia Inter Miami CF Ativo 146 / 143 40% 1 30.11.2027 -
Alejo Dramisino Atlanta Ativo 116 / 121 40% 1 29.11.2027 -
Nuno Moreira Vasco da Gama Ativo 139 / 134 40% 1 29.11.2027 -
Cesar Rubio Envigado Ativo 105 / 108 40% 2 26.11.2027 -
Daniel Idoko Ikorodu City Ativo 112 / 84 40% 3 26.11.2027 -
Aarón Molinas Defensa y Justicia Ativo 132 / 123 40% 1 24.11.2027 -
Facundo Altamira Godoy Cruz Ativo 131 / 119 40% 1 24.11.2027 -
Joel Ezra Enyimba Ativo 106 / 102 40% 1 24.11.2027 -
Onyeuche Ujunwa Ikorodu City Ativo 107 / 96 40% 1 21.11.2027 -
Jofre Torrents Ajax Ativo 122 / 133 40% 1 20.11.2027 -
Mohamed Moussa Koïta Mathare United Ativo 98 / 101 40% 1 18.11.2027 -
Victor Hernandez Santa Fe Ativo 118 / 130 40% 3 16.11.2027 -
Emerson Batalla Atletico Bucaramanga Ativo 128 / 122 40% 2 16.11.2027 -
Victor Lind Hammarby Ativo 140 / 123 40% 2 14.11.2027 -
Patricio Moyano Defensores Ativo 118 / 113 40% 1 14.11.2027 -
David Damboama El-Kanemi Warriors Ativo 70 / 77 40% 1 13.11.2027 -
Sebastián Ramírez Aguilas Doradas Ativo 97 / 116 40% 1 13.11.2027 -
Alexis Cuello San Lorenzo Ativo 128 / 119 40% 1 12.11.2027 -
Lucas Assadi AIK Ativo 117 / 132 40% 1 12.11.2027 -
Juan Bisanz Huracán Ativo 120 / 126 40% 2 11.11.2027 -
Agustín De la Cuesta Racing Ativo 119 / 111 40% 1 10.11.2027 -
Franco Vedoya Central Norte Ativo 123 / 107 40% 2 08.11.2027 -
Fabián Suárez Chalares Aguilas Doradas Ativo 104 / 115 40% 4 07.11.2027 -
Nicolás Retamar Ferro Carril Oeste Ativo 125 / 118 40% 1 07.11.2027 -
Ramón González Almirante Brown Ativo 122 / 119 40% 1 02.11.2027 -
Santiago Rodríguez Columbus Crew Ativo 138 / 129 40% 1 02.11.2027 -
Caio Vidal Deportivo Pereira Ativo 143 / 130 40% 3 01.11.2027 -
Talles Magno New York City Ativo 119 / 126 40% 1 30.10.2027 -
Pablo Cardona Cortulua Ativo 109 / 109 40% 1 29.10.2027 -
Edwin Mosquera Santa Fe Ativo 115 / 119 40% 1 27.10.2027 -
Augusto Berrondo Tristán Suárez Ativo 118 / 105 40% 1 26.10.2027 -
Daniel Barrea Godoy Cruz Ativo 115 / 125 40% 1 21.10.2027 -
Alejandro Piedrahita Deportivo Pereira Ativo 129 / 121 40% 1 21.10.2027 -
Antony Portland Timbers Ativo 151 / 119 40% 1 17.10.2027 -
Louis Leroux FC Nantes Ativo 126 / 143 40% 1 17.10.2027 -
Bohdan Budko AZ Ativo 107 / 127 40% 1 15.10.2027 -
Olaniyi Saheed Kwara United Ativo 74 / 102 40% 1 14.10.2027 -
Felipe Faúndez O'Higgins Ativo 99 / 101 40% 1 14.10.2027 -
Francisco Machis Llaneros Ativo 79 / 87 40% 1 12.10.2027 -
Alpha Touré FC Metz Ativo 128 / 119 40% 2 10.10.2027 -
Johan Martínez Deportivo Cali Ativo 116 / 120 40% 1 07.10.2027 -
Matías Rosales Sarmiento Ativo 119 / 118 40% 1 06.10.2027 -
Javier Altamirano Universidad de Chile Ativo 123 / 120 40% 1 05.10.2027 -
Almugera Kabar Borussia Dortmund Ativo 126 / 130 40% 1 05.10.2027 -
Óscar Hinojosa Metropolitanos Ativo 81 / 80 40% 1 13.09.2027 -
Ivan Borges Defensores Ativo 89 / 97 40% 1 10.09.2027 -
Gideon Manaseh Ikorodu City Ativo 79 / 93 40% 1 10.09.2027 -
Mpho Khethang FC Diarra Ativo 82 / 88 40% 1 07.09.2027 -
Eliás Montiel Borussia Dortmund Ativo 137 / 141 40% 1 16.08.2027 -
Santiago Murillo Alianza Petrolera Ativo 128 / 128 40% 1 09.08.2027 -
Miguel Figueiredo Benfica Ativo 119 / 120 40% 1 05.07.2027 -
Francis Gomez Cardiff City Ativo 102 / 111 40% 1 05.07.2027 -
Arijanet Murić Sassuolo Ativo 144 / 143 40% 1 01.06.2027 -
Isaiah Jones Luton Town Ativo 127 / 123 40% 5 29.05.2027 -
Daniel Kyerewaa Reading Ativo 109 / 106 40% 3 29.05.2027 -
Nathan Broadhead Wrexham Ativo 132 / 131 40% 1 28.05.2027 -
Derensili Sanches Fernandes Huddersfield Town Ativo 132 / 123 40% 4 27.05.2027 -
Azor Matusiwa Ipswich Town Ativo 126 / 142 40% 1 26.05.2027 -
Chemsdine Talbi Sunderland Ativo 132 / 140 40% 8 25.05.2027 -
Sheyi Ojo Crewe Alexandra Ativo 118 / 117 40% 1 25.05.2027 -
Malik Mothersille Stockport County Ativo 123 / 108 40% 1 24.05.2027 -
Carlos Vicente Birmingham Ativo 148 / 141 40% 6 23.05.2027 -
Jack Rudoni Coventry City Ativo 127 / 128 40% 4 23.05.2027 -
Nordi Mukiele Sunderland Ativo 138 / 151 40% 3 21.05.2027 -
Louie Barry Sheffield Wednesday Ativo 132 / 131 40% 3 20.05.2027 -
Mohamed-Ali Cho Hull City Ativo 141 / 136 40% 1 20.05.2027 -
Zian Flemming Ipswich Town Ativo 124 / 139 40% 1 20.05.2027 -
Matt O'Riley Brighton Ativo 158 / 153 40% 2 19.05.2027 Mais informações
Joe Gelhardt Hull City Ativo 133 / 132 40% 3 17.05.2027 -
Cian Ashford Cardiff City Ativo 120 / 123 40% 2 17.05.2027 -
Darragh Burns Grimsby Town Ativo 97 / 102 40% 1 16.05.2027 -
Finn Azaz Southampton Ativo 132 / 125 40% 3 13.05.2027 -
Alex Scott Bournemouth Ativo 162 / 147 40% 1 11.05.2027 -
Oswin Appollis Orlando Pirates Ativo 123 / 111 40% 2 05.05.2027 -
Ethan Galbraith Swansea City Ativo 133 / 132 40% 1 05.05.2027 -
Tyrese Campbell Sheffield United Ativo 123 / 120 40% 1 05.05.2027 -
Marcus Edwards Burnley Ativo 128 / 143 40% 2 04.05.2027 -
Sorba Thomas Stoke City Ativo 135 / 122 40% 2 04.05.2027 -
Ilias Sebaoui Sint-Truiden Ativo 116 / 122 40% 6 29.04.2027 -
Ilyas Ansah Hull City Ativo 130 / 127 40% 1 28.04.2027 -
Brooke Norton-Cuffy Hull City Ativo 132 / 141 40% 2 26.04.2027 -
Gonzalo Fulham Ativo 143 / 139 40% 2 26.04.2027 -
Xaver Schlager Nottingham Forest Ativo 147 / 151 40% 1 26.04.2027 -
Juan Bezerra Zamalek Ativo 128 / 111 40% 2 25.04.2027 -
Malick Fofana Sunderland Ativo 151 / 140 40% 1 25.04.2027 -
Justo Giani Umraniyespor Ativo 117 / 129 40% 1 24.04.2027 -
Bobby Clark Derby County Ativo 126 / 119 40% 1 21.04.2027 -
Jackson Muleka Konyaspor Ativo 120 / 130 40% 1 18.04.2027 -
Milan van Ewijk Coventry City Ativo 135 / 133 40% 3 12.04.2027 -
Giacomo Raspadori Atalanta Ativo 150 / 143 40% 2 09.04.2027 -
Mitchel Bakker Modena Ativo 119 / 133 40% 4 08.04.2027 -
Savinho Tottenham Ativo 148 / 164 40% 4 07.04.2027 -
Carlos Forbs Club Brugge Ativo 131 / 139 40% 4 05.04.2027 -
Marcelo Allende Mamelodi Sundowns Ativo 137 / 119 40% 2 28.03.2027 -
Bongani Zungu Ajax Cape Town Ativo 115 / 114 40% 1 26.03.2027 -
Amine Adli Bournemouth Ativo 146 / 136 40% 1 24.03.2027 -
Kenny Tete Fulham Ativo 137 / 145 40% 3 20.03.2027 -
Mario Stroeykens Anderlecht Ativo 137 / 123 40% 5 20.03.2027 -
Jakub Moder Burnley Ativo 143 / 141 40% 2 16.03.2027 -
Álex Berenguer Lokomotiv Moscow Ativo 140 / 145 40% 5 13.03.2027 -
Adrien Truffert Bournemouth Ativo 138 / 142 40% 2 13.03.2027 -
Ilay Camara Anderlecht Ativo 129 / 139 40% 1 11.03.2027 -
Tyler Adams Bournemouth Ativo 140 / 146 40% 4 10.03.2027 -
Bernard Tekpetey Ludogorets Ativo 143 / 133 40% 1 09.03.2027 -
Thierry Ambrose KV Kortrijk Ativo 117 / 129 40% 3 07.03.2027 -
Tristan Degreef Anderlecht Ativo 130 / 131 40% 3 04.03.2027 -
Bradley Zwane SuperSport United Ativo 109 / 130 40% 1 27.02.2027 -
Ianis Hagi Alanyaspor Ativo 139 / 112 40% 1 16.02.2027 -
Marley Aké Zulte Waregem Ativo 122 / 124 40% 2 09.02.2027 -
Ryotaro Ito Sint-Truiden Ativo 135 / 118 40% 2 06.02.2027 -
Daan Heymans Racing Genk Ativo 118 / 126 40% 2 21.01.2027 -
Itumeleng Grobler Free State Stars Ativo 88 / 110 40% 3 02.01.2027 -
Maxim Deman Waasland-Beveren Ativo 94 / 110 40% 1 02.01.2027 -
Sampson Dweh Mallorca Ativo 133 / 134 66% 1 01.01.2027 Aprovar
Malick Mbaye Zulte Waregem Ativo 102 / 124 44% 1 01.01.2027 -
Kevin Fulham Ativo 153 / 150 40% 1 30.12.2026 -
Patrick Maswanganyi Orlando Pirates Ativo 122 / 114 40% 1 29.12.2026 -
Lukas Jensen Millwall Ativo 128 / 109 40% 1 29.12.2026 -
Andreas Jungdal Westerlo Ativo 131 / 119 40% 1 29.12.2026 -
Jordan Amissah Burton Albion Ativo 94 / 99 40% 2 28.12.2026 -
Florentino Luís Ipswich Town Ativo 133 / 138 40% 1 27.12.2026 -
Reda Khadra Qarabag Ativo 128 / 140 40% 3 25.12.2026 -
Morgan Gibbs-White Nottingham Forest Ativo 144 / 157 40% 4 24.12.2026 -
Ilyes Najim Waasland-Beveren Ativo 131 / 124 40% 1 24.12.2026 -
Richard Ludha MFK Skalica Ativo 102 / 102 40% 1 23.12.2026 -
Brent Gabriel Zulte Waregem Ativo 105 / 117 40% 2 21.12.2026 -
Alkalifa Coulibaly Onze Createurs Ativo 79 / 90 40% 2 18.12.2026 -
Maduka Okoye Udinese Ativo 140 / 130 40% 1 18.12.2026 -
Abdelkahar Kadri KAA Gent Ativo 125 / 127 40% 1 13.12.2026 -
N'Golo Traoré Stade Malien Ativo 108 / 86 40% 1 12.12.2026 -
Jeppe Erenbjerg Racing Genk Ativo 106 / 125 40% 1 10.12.2026 -
Gessime Yassine RC Strasbourg Ativo 115 / 126 40% 1 08.12.2026 -
Elliot Anderson Manchester City Ativo 154 / 150 40% 1 04.12.2026 -
Kyriani Sabbe Club Brugge Ativo 104 / 123 40% 2 28.11.2026 -
Sylvester Jasper Standard Liege Ativo 105 / 122 40% 1 27.11.2026 -
Marcelin Mbahbi Cotonsport Garoua Ativo 100 / 107 40% 1 26.11.2026 -
Themba Williams Ajax Cape Town Ativo 123 / 133 40% 1 24.11.2026 -
Vincent Müller Aalborg Ativo 97 / 95 40% 1 20.11.2026 -
Josh Keeley Luton Town Ativo 136 / 131 40% 1 20.11.2026 -
Pascal Loretz Luzern Ativo 129 / 127 40% 1 16.11.2026 -
Bogdan Ovsyannikov Orenburg Ativo 90 / 98 40% 1 15.11.2026 -
Lucas Lund Viborg Ativo 119 / 105 40% 1 15.11.2026 -
Ryan Thomas Zwolle Ativo 104 / 118 40% 1 13.11.2026 -
Maksim Kireev KV Mechelen Ativo 131 / 128 40% 1 09.11.2026 -
Jan Virgili Club Brugge Ativo 138 / 141 40% 1 08.11.2026 -
Antoine Colassin Charleroi Ativo 132 / 114 40% 1 07.11.2026 -
Andrei Vlad Petrolul Ativo 135 / 115 40% 1 07.11.2026 -
Marcelino Moreno Lanús Ativo 133 / 131 40% 1 04.11.2026 -
Facundo Mura Inter Miami CF Ativo 114 / 141 40% 2 30.10.2026 -
Freddie Potts Club Brugge Ativo 127 / 136 40% 1 30.10.2026 -
Alejandro Pozo Standard Liege Ativo 134 / 114 40% 1 22.10.2026 -
Welington Southampton Ativo 118 / 132 40% 1 22.10.2026 -
Jayden Bogle Leeds United Ativo 139 / 135 40% 1 21.10.2026 -
Ibrahim Karamoko Standard Liege Ativo 131 / 124 40% 1 19.10.2026 -
Matisse Samoise KAA Gent Ativo 111 / 125 40% 1 19.10.2026 -
Mardochée Nzita Charleroi Ativo 112 / 118 40% 1 17.10.2026 -
Matteo Dams Club Brugge Ativo 120 / 119 40% 2 16.10.2026 -
Joel Ordóñez Club Brugge Ativo 124 / 135 40% 1 16.10.2026 -
Marco Kana Anderlecht Ativo 114 / 133 40% 1 15.10.2026 -
Rubens Dinamo Moscow Ativo 132 / 126 40% 1 12.10.2026 -
Anton Tanghe Zulte Waregem Ativo 128 / 103 40% 1 12.10.2026 -
Olivier Aertssen Zwolle Ativo 119 / 104 40% 1 09.10.2026 -
Junior Onana Ludogorets Ativo 102 / 117 40% 1 09.10.2026 -
Yaimar Medina Racing Genk Ativo 108 / 131 40% 1 07.10.2026 -
Tobias Sommer Zwolle Ativo 120 / 111 40% 1 06.10.2026 -
David Brekalo Orlando City Ativo 150 / 135 40% 1 06.10.2026 -
Tiago Araújo KAA Gent Ativo 131 / 130 40% 1 10.09.2026 -
Igor Jesus Los Angeles Football Club Ativo 95 / 125 40% 1 08.09.2026 -
Tomás Alarcón Colo-Colo Ativo 109 / 114 40% 1 08.09.2026 -
Martín Ojeda Orlando City Ativo 152 / 124 40% 1 25.08.2026 -
Dylan Dassy Waasland-Beveren Ativo 107 / 88 44% 1 24.08.2026 -
Rodrigo Morínigo Debrecen Ativo 105 / 135 40% 1 19.08.2026 -
Jelle Vossen Ativo 120 / 119 44% 1 03.08.2026 -
Madi Monamay PSV Ativo 88 / 108 40% 1 02.08.2026 -